Time;durP1;ratioP1;P1;durP2;ratioP2;P2;SDS_P1;SDS_P2;PMS_P1;PMS_P2;Temp;Humidity;BMP_temperature;BMP_pressure;BME280_temperature;BME280_humidity;BME280_pressure;Samples;Min_cycle;Max_cycle;Signal;HPM_P1;HPM_P2
2024/01/04 00:01:23;;;;;;;3.53;1.95;;;;;;;11.84;64.60;99386.19;4860717;23;113918;-71
2024/01/04 00:03:51;;;;;;;5.28;1.30;;;;;;;11.84;64.61;99386.19;4862467;28;124414;-71
2024/01/04 00:06:22;;;;;;;5.43;1.50;;;;;;;11.84;64.59;99386.19;4869696;28;123105;-71
2024/01/04 00:08:53;;;;;;;5.88;1.38;;;;;;;11.84;64.67;99395.94;4849390;29;114240;-72
2024/01/04 00:11:23;;;;;;;8.52;1.60;;;;;;;11.83;64.78;99400.41;4854385;28;113213;-72
2024/01/04 00:13:52;;;;;;;7.18;1.42;;;;;;;11.82;64.70;99404.03;4858846;28;123194;-72
2024/01/04 00:16:21;;;;;;;7.20;1.48;;;;;;;11.81;64.62;99407.66;4852955;28;123489;-72
2024/01/04 00:19:56;;;;;;;7.80;1.23;;;;;;;11.80;64.83;99411.25;4849161;28;114331;-72
2024/01/04 00:22:41;;;;;;;3.25;1.10;;;;;;;11.78;64.60;99418.47;4857366;28;113446;-71
2024/01/04 00:25:11;;;;;;;6.20;1.40;;;;;;;11.77;64.69;99416.78;4853993;28;124636;-72
2024/01/04 00:27:38;;;;;;;7.07;1.20;;;;;;;11.76;64.75;99425.69;4852605;29;123606;-71
2024/01/04 00:30:06;;;;;;;2.40;1.08;;;;;;;11.75;64.73;99429.28;4848030;29;115230;-71
2024/01/04 00:32:33;;;;;;;4.35;1.08;;;;;;;11.75;64.89;99434.59;4860997;28;114268;-71
2024/01/04 00:35:51;;;;;;;4.05;1.20;;;;;;;11.73;64.81;99441.81;4849896;29;123885;-71
2024/01/04 00:38:19;;;;;;;3.53;1.00;;;;;;;11.72;64.84;99440.16;4866381;28;123823;-71
2024/01/04 00:40:47;;;;;;;5.63;1.08;;;;;;;11.72;64.80;99455.22;4854381;28;113281;-71
2024/01/04 00:43:15;;;;;;;2.60;0.98;;;;;;;11.71;64.92;99464.97;4866374;28;113217;-71
2024/01/04 00:46:11;;;;;;;3.67;1.00;;;;;;;11.70;64.97;99473.88;4845161;29;124544;-71
2024/01/04 00:48:38;;;;;;;3.80;1.10;;;;;;;11.69;64.76;99482.78;4842780;29;123950;-71
2024/01/04 00:51:07;;;;;;;3.53;1.20;;;;;;;11.68;64.90;99486.41;4852858;29;115018;-71
2024/01/04 00:53:34;;;;;;;4.72;1.10;;;;;;;11.68;65.05;99486.41;4856480;29;114200;-71
2024/01/04 00:56:03;;;;;;;3.88;1.13;;;;;;;11.67;64.91;99490.00;4852957;29;124250;-71
2024/01/04 00:58:30;;;;;;;3.47;1.25;;;;;;;11.66;64.88;99510.38;4853179;29;124702;-71
2024/01/04 01:01:05;;;;;;;3.72;1.27;;;;;;;11.65;64.97;99499.88;4853173;29;114732;-71
2024/01/04 01:03:33;;;;;;;3.60;1.17;;;;;;;11.65;65.11;99507.84;4853647;29;114386;-71
2024/01/04 01:06:32;;;;;;;4.47;1.25;;;;;;;11.64;64.98;99532.66;4845926;29;124109;-70
2024/01/04 01:09:00;;;;;;;2.40;1.10;;;;;;;11.64;65.03;99530.00;4855045;29;123457;-71
2024/01/04 01:11:28;;;;;;;4.35;1.77;;;;;;;11.63;65.10;99538.94;4864533;23;113469;-70
2024/01/04 01:13:56;;;;;;;4.10;1.40;;;;;;;11.64;65.04;99548.56;4878964;28;113094;-70
2024/01/04 01:16:23;;;;;;;6.10;1.20;;;;;;;11.65;65.19;99550.28;4882386;28;123275;-70
2024/01/04 01:18:50;;;;;;;3.30;1.30;;;;;;;11.65;65.17;99550.28;4872904;28;123317;-70
2024/01/04 01:21:19;;;;;;;4.15;1.58;;;;;;;11.65;65.16;99560.88;4859791;28;114933;-70
2024/01/04 01:23:46;;;;;;;4.45;1.60;;;;;;;11.65;65.14;99567.03;4885223;28;114434;-70
2024/01/04 01:26:30;;;;;;;6.03;1.58;;;;;;;11.66;65.20;99578.50;4863133;28;122965;-70
2024/01/04 01:28:57;;;;;;;3.03;1.48;;;;;;;11.65;65.16;99587.41;4854962;28;123434;-70
2024/01/04 01:31:27;;;;;;;6.32;1.25;;;;;;;11.65;65.24;99584.75;4875006;28;113749;-70
2024/01/04 01:33:54;;;;;;;7.32;1.40;;;;;;;11.65;65.04;99593.53;4868889;28;114304;-70
2024/01/04 01:36:32;;;;;;;2.92;1.52;;;;;;;11.63;65.12;99597.28;4867517;28;123230;-70
2024/01/04 01:39:00;;;;;;;5.95;1.65;;;;;;;11.64;65.12;99612.22;4875441;28;123365;-70
2024/01/04 01:41:40;;;;;;;4.53;1.40;;;;;;;11.63;65.13;99626.44;4869489;28;114332;-70
2024/01/04 01:44:08;;;;;;;6.60;1.50;;;;;;;11.61;65.09;99618.59;4867691;28;114040;-70
2024/01/04 01:46:37;;;;;;;5.53;1.30;;;;;;;11.60;64.93;99626.63;4896921;23;123073;-71
2024/01/04 01:49:05;;;;;;;4.60;1.30;;;;;;;11.58;65.02;99633.84;4873847;28;124667;-71
2024/01/04 01:51:37;;;;;;;5.47;1.60;;;;;;;11.58;65.08;99639.16;4869930;28;113189;-72
2024/01/04 01:54:05;;;;;;;3.15;1.27;;;;;;;11.57;65.08;99642.78;4875021;28;113085;-72
2024/01/04 01:56:32;;;;;;;3.42;1.13;;;;;;;11.55;65.01;99650.00;4860540;28;124040;-72
2024/01/04 01:59:01;;;;;;;7.40;1.55;;;;;;;11.54;65.13;99632.38;4875796;28;122991;-72
2024/01/04 02:01:37;;;;;;;4.63;1.25;;;;;;;11.53;65.10;99646.56;4873268;28;112685;-72
2024/01/04 02:04:05;;;;;;;2.30;1.23;;;;;;;11.49;64.98;99644.16;4866552;28;113480;-72
2024/01/04 02:06:33;;;;;;;4.53;1.13;;;;;;;11.49;64.89;99652.09;4866923;28;123666;-72
2024/01/04 02:09:01;;;;;;;4.53;1.30;;;;;;;11.48;64.83;99649.56;4857354;28;122722;-72
2024/01/04 02:11:28;;;;;;;3.95;1.20;;;;;;;11.47;64.89;99658.44;4855528;28;114294;-72
2024/01/04 02:13:55;;;;;;;3.58;1.10;;;;;;;11.46;64.91;99662.91;4872061;28;115212;-72
2024/01/04 02:16:23;;;;;;;2.05;1.05;;;;;;;11.46;64.99;99662.91;4870031;28;125699;-72
2024/01/04 02:18:50;;;;;;;4.95;1.20;;;;;;;11.46;64.96;99673.50;4865892;28;122857;-72
2024/01/04 02:21:17;;;;;;;1.77;1.02;;;;;;;11.46;65.14;99678.81;4870021;28;113830;-72
2024/01/04 02:23:45;;;;;;;4.82;1.33;;;;;;;11.46;65.05;99684.13;4858103;28;112952;-72
2024/01/04 02:26:13;;;;;;;5.03;1.48;;;;;;;11.49;65.02;99683.91;4867067;28;123158;-72
2024/01/04 02:28:41;;;;;;;7.28;1.65;;;;;;;11.50;65.26;99690.91;4865095;28;124192;-72
2024/01/04 02:31:08;;;;;;;5.45;2.00;;;;;;;11.53;65.13;99694.28;4865904;28;112216;-72
2024/01/04 02:33:36;;;;;;;11.90;2.15;;;;;;;11.53;65.01;99696.94;4883512;28;113627;-72
2024/01/04 02:36:05;;;;;;;7.32;2.00;;;;;;;11.55;65.12;99708.34;4872178;28;122569;-72
2024/01/04 02:38:33;;;;;;;9.70;1.80;;;;;;;11.56;65.10;99715.31;4869428;28;123309;-72
2024/01/04 02:41:01;;;;;;;4.38;1.90;;;;;;;11.56;64.94;99720.63;4874038;28;113307;-73
2024/01/04 02:43:29;;;;;;;5.57;1.83;;;;;;;11.59;65.17;99720.44;4877914;28;113084;-72
2024/01/04 02:45:57;;;;;;;5.75;1.95;;;;;;;11.60;65.45;99722.09;4891466;28;123336;-72
2024/01/04 02:48:24;;;;;;;5.63;1.75;;;;;;;11.62;65.15;99714.91;4860205;28;123127;-72
2024/01/04 02:50:52;;;;;;;4.45;1.83;;;;;;;11.64;65.25;99721.81;4886771;28;114177;-72
2024/01/04 02:53:19;;;;;;;6.13;1.80;;;;;;;11.66;65.26;99711.09;4875333;28;113948;-72
2024/01/04 02:55:47;;;;;;;7.35;1.90;;;;;;;11.68;65.40;99730.41;4872001;28;123249;-72
2024/01/04 02:58:14;;;;;;;5.78;2.00;;;;;;;11.69;65.24;99721.50;4870940;28;123007;-72
2024/01/04 03:00:42;;;;;;;6.95;2.30;;;;;;;11.70;65.11;99728.50;4866987;28;114987;-72
2024/01/04 03:03:09;;;;;;;6.63;2.30;;;;;;;11.73;65.04;99732.75;4870003;28;113990;-72
2024/01/04 03:05:36;;;;;;;8.80;2.30;;;;;;;11.74;65.12;99723.84;4868510;28;124400;-72
2024/01/04 03:08:04;;;;;;;6.55;2.22;;;;;;;11.75;65.10;99731.69;4857064;28;123892;-72
2024/01/04 03:10:33;;;;;;;10.52;2.60;;;;;;;11.76;65.17;99728.09;4875632;28;113918;-72
2024/01/04 03:13:00;;;;;;;7.97;2.30;;;;;;;11.78;65.25;99731.47;4867957;28;114196;-72
2024/01/04 03:15:27;;;;;;;9.82;2.90;;;;;;;11.80;65.19;99740.19;4867264;28;124382;-72
2024/01/04 03:17:55;;;;;;;8.95;2.55;;;;;;;11.81;65.04;99747.19;4863044;28;123826;-72
2024/01/04 03:20:22;;;;;;;8.25;2.70;;;;;;;11.82;65.22;99743.56;4875530;28;113942;-72
2024/01/04 03:22:50;;;;;;;11.23;2.90;;;;;;;11.83;65.14;99745.28;4869421;28;114122;-72
2024/01/04 03:25:18;;;;;;;11.55;2.97;;;;;;;11.84;65.11;99757.59;4863307;28;124078;-72
2024/01/04 03:27:45;;;;;;;11.23;2.92;;;;;;;11.85;65.13;99759.28;4867407;28;123251;-72
2024/01/04 03:30:13;;;;;;;8.02;3.10;;;;;;;11.86;65.33;99760.97;4861637;28;113954;-72
2024/01/04 03:32:40;;;;;;;12.68;3.05;;;;;;;11.88;65.28;99764.41;4867100;28;113946;-72
2024/01/04 03:35:08;;;;;;;13.00;3.40;;;;;;;11.92;65.21;99758.91;4874906;28;123377;-72
2024/01/04 03:37:35;;;;;;;10.50;2.85;;;;;;;11.93;65.30;99771.22;4875290;28;124448;-72
2024/01/04 03:40:03;;;;;;;10.45;3.20;;;;;;;11.94;65.12;99762.31;4874319;28;114158;-72
2024/01/04 03:42:32;;;;;;;10.57;2.80;;;;;;;11.93;65.17;99765.94;4870689;28;113609;-72
2024/01/04 03:44:59;;;;;;;11.18;3.00;;;;;;;11.95;65.29;99774.63;4868857;28;124033;-72
2024/01/04 03:47:27;;;;;;;12.50;2.92;;;;;;;11.93;65.02;99771.22;4874766;28;124259;-72
2024/01/04 03:49:54;;;;;;;9.02;3.05;;;;;;;11.92;65.06;99775.66;4871573;28;115168;-72
2024/01/04 03:52:22;;;;;;;7.15;2.90;;;;;;;11.91;65.00;99778.44;4871991;28;114193;-72
2024/01/04 03:54:52;;;;;;;11.40;2.47;;;;;;;11.90;65.03;99779.38;4868912;28;123804;-72
2024/01/04 03:57:19;;;;;;;8.82;2.58;;;;;;;11.88;65.21;99788.28;4865850;28;124822;-72
2024/01/04 03:59:46;;;;;;;7.47;2.47;;;;;;;11.90;65.12;99797.97;4873067;28;114118;-72
2024/01/04 04:02:13;;;;;;;7.72;2.80;;;;;;;11.91;65.09;99799.69;4874186;28;113001;-72
2024/01/04 04:04:41;;;;;;;9.02;2.97;;;;;;;11.92;65.18;99809.31;4871987;28;124208;-72
2024/01/04 04:07:10;;;;;;;8.95;3.28;;;;;;;11.91;65.06;99804.97;4871571;28;124327;-72
2024/01/04 04:09:37;;;;;;;10.30;3.42;;;;;;;11.91;65.24;99810.28;4873166;28;114536;-72
2024/01/04 04:12:05;;;;;;;7.32;3.03;;;;;;;11.91;65.07;99826.22;4871785;28;114071;-72
2024/01/04 04:14:34;;;;;;;8.45;3.33;;;;;;;11.90;65.07;99824.50;4870863;28;124564;-72
2024/01/04 04:17:01;;;;;;;9.20;3.55;;;;;;;11.88;65.16;99825.44;4864628;28;123561;-72
2024/01/04 04:19:30;;;;;;;8.23;2.95;;;;;;;11.89;65.05;99834.22;4868847;28;114479;-72
2024/01/04 04:21:58;;;;;;;10.80;3.45;;;;;;;11.88;65.13;99833.38;4865032;28;113951;-72
2024/01/04 04:24:25;;;;;;;9.38;3.58;;;;;;;11.88;65.18;99838.69;4880246;28;124747;-72
2024/01/04 04:26:52;;;;;;;6.13;2.67;;;;;;;11.86;65.08;99829.97;4870723;28;124815;-72
2024/01/04 04:29:27;;;;;;;5.63;2.55;;;;;;;11.81;65.04;99832.09;4878404;28;113480;-72
2024/01/04 04:31:55;;;;;;;4.97;2.83;;;;;;;11.81;65.10;99840.06;4860984;28;114014;-72
2024/01/04 04:34:23;;;;;;;5.45;2.90;;;;;;;11.80;64.95;99833.03;4864658;28;124498;-72
2024/01/04 04:36:50;;;;;;;6.70;2.60;;;;;;;11.79;65.04;99844.59;4872515;28;124028;-72
2024/01/04 04:39:20;;;;;;;5.63;2.88;;;;;;;11.80;64.96;99856.91;4874109;28;115303;-72
2024/01/04 04:41:47;;;;;;;8.55;2.70;;;;;;;11.80;64.94;99851.59;4873378;28;113688;-72
2024/01/04 04:44:15;;;;;;;5.95;2.78;;;;;;;11.80;65.02;99851.59;4862618;28;124198;-72
2024/01/04 04:46:42;;;;;;;9.63;3.10;;;;;;;11.79;65.09;99855.22;4872580;28;123325;-72
2024/01/04 04:49:09;;;;;;;6.05;2.95;;;;;;;11.80;65.06;99862.22;4868386;28;113886;-72
2024/01/04 04:51:37;;;;;;;8.90;3.10;;;;;;;11.80;65.11;99867.53;4867586;28;113753;-72
2024/01/04 04:54:04;;;;;;;7.65;2.70;;;;;;;11.79;65.09;99868.47;4871667;28;124323;-72
2024/01/04 04:56:33;;;;;;;9.02;3.40;;;;;;;11.79;65.25;99868.47;4871323;28;123748;-72
2024/01/04 04:59:00;;;;;;;11.35;3.80;;;;;;;11.80;65.12;99867.53;4864228;28;114938;-72
2024/01/04 05:01:27;;;;;;;14.57;4.10;;;;;;;11.80;65.11;99872.81;4868403;28;114766;-72
2024/01/04 05:03:55;;;;;;;12.23;4.22;;;;;;;11.80;65.16;99872.81;4855149;28;123419;-72
2024/01/04 05:06:22;;;;;;;9.65;3.72;;;;;;;11.81;65.21;99874.53;4864241;28;124531;-72
2024/01/04 05:08:49;;;;;;;12.43;3.97;;;;;;;11.80;65.20;99872.81;4860290;28;114450;-72
2024/01/04 05:11:17;;;;;;;12.90;4.15;;;;;;;11.81;65.12;99874.53;4853357;28;113754;-72
2024/01/04 05:13:44;;;;;;;11.35;3.78;;;;;;;11.80;65.32;99871.97;4856340;28;124827;-72
2024/01/04 05:16:12;;;;;;;10.88;3.92;;;;;;;11.80;65.59;99872.81;4872000;28;123882;-72
2024/01/04 05:18:39;;;;;;;9.63;3.50;;;;;;;11.80;65.25;99886.09;4864561;28;114386;-72
2024/01/04 05:21:13;;;;;;;10.38;3.75;;;;;;;11.80;65.33;99878.13;4853774;28;113910;-72
2024/01/04 05:23:40;;;;;;;9.30;3.30;;;;;;;11.79;65.41;99892.38;4866479;28;124486;-70
2024/01/04 05:26:07;;;;;;;7.53;3.38;;;;;;;11.81;65.32;99885.16;4853278;29;123842;-71
2024/01/04 05:28:35;;;;;;;7.28;2.97;;;;;;;11.81;65.34;99890.47;4864295;28;115202;-71
2024/01/04 05:31:02;;;;;;;10.15;4.00;;;;;;;11.83;65.39;99893.84;4852157;29;115434;-71
2024/01/04 05:33:29;;;;;;;7.53;3.10;;;;;;;11.83;65.29;99901.81;4855401;28;124009;-71
2024/01/04 05:35:57;;;;;;;6.40;3.20;;;;;;;11.82;65.29;99899.25;4852761;28;123692;-71
2024/01/04 05:38:25;;;;;;;10.15;3.17;;;;;;;11.82;65.26;99902.75;4851449;28;115271;-71
2024/01/04 05:40:53;;;;;;;8.88;3.22;;;;;;;11.80;65.06;99904.66;4853108;28;113775;-70
2024/01/04 05:43:21;;;;;;;9.80;2.38;;;;;;;11.81;65.19;99906.38;4846801;29;124773;-71
2024/01/04 05:45:48;;;;;;;7.80;2.33;;;;;;;11.80;65.04;99909.97;4859849;28;122860;-70
2024/01/04 05:48:17;;;;;;;4.68;2.05;;;;;;;11.79;65.07;99918.91;4853019;29;114327;-70
2024/01/04 05:50:44;;;;;;;3.60;2.00;;;;;;;11.79;65.07;99923.31;4855194;28;114533;-70
2024/01/04 05:53:11;;;;;;;4.60;1.88;;;;;;;11.78;65.03;99922.47;4851729;28;123726;-70
2024/01/04 05:55:39;;;;;;;3.58;1.48;;;;;;;11.77;65.00;99934.06;4849164;29;124592;-71
2024/01/04 05:58:07;;;;;;;4.50;1.55;;;;;;;11.76;64.86;99924.38;4846488;28;114424;-70
2024/01/04 06:00:34;;;;;;;5.57;1.55;;;;;;;11.76;64.91;99935.00;4853858;28;114614;-70
2024/01/04 06:03:02;;;;;;;3.47;1.40;;;;;;;11.76;64.87;99940.31;4849728;28;123914;-71
2024/01/04 06:05:29;;;;;;;4.25;1.50;;;;;;;11.77;65.09;99947.31;4855629;28;124524;-70
2024/01/04 06:07:57;;;;;;;4.15;1.60;;;;;;;11.76;64.87;99945.59;4850552;28;115031;-71
2024/01/04 06:10:24;;;;;;;3.05;1.27;;;;;;;11.76;64.64;99958.88;4862337;28;113159;-71
2024/01/04 06:12:52;;;;;;;4.32;1.50;;;;;;;11.76;64.75;99960.69;4852322;28;124252;-70
2024/01/04 06:15:19;;;;;;;1.98;1.35;;;;;;;11.74;64.63;99966.06;4854502;29;124251;-70
2024/01/04 06:17:47;;;;;;;4.65;1.60;;;;;;;11.74;64.81;99968.72;4857554;29;115615;-70
2024/01/04 06:20:14;;;;;;;3.38;1.73;;;;;;;11.74;64.72;99973.19;4855798;28;114368;-70
2024/01/04 06:22:41;;;;;;;5.25;2.20;;;;;;;11.74;64.85;99968.72;4856365;28;124226;-70
2024/01/04 06:25:10;;;;;;;4.63;1.90;;;;;;;11.74;64.80;99974.03;4856673;28;122907;-70
2024/01/04 06:27:38;;;;;;;7.13;1.70;;;;;;;11.75;64.85;99978.38;4856612;28;113920;-70
2024/01/04 06:30:06;;;;;;;5.35;1.70;;;;;;;11.77;64.93;99981.81;4847183;28;112754;-70
2024/01/04 06:32:33;;;;;;;4.43;2.00;;;;;;;11.77;64.82;99992.44;4848490;28;124089;-71
2024/01/04 06:35:29;;;;;;;5.88;2.25;;;;;;;11.77;64.71;99984.47;4855239;28;122957;-71
2024/01/04 06:37:56;;;;;;;6.82;2.30;;;;;;;11.79;64.82;99993.19;4857688;28;114642;-71
2024/01/04 06:40:24;;;;;;;6.28;2.20;;;;;;;11.80;64.77;99994.00;4857348;28;113471;-71
2024/01/04 06:42:55;;;;;;;7.32;2.80;;;;;;;11.81;64.83;100007.19;4856246;28;124233;-71
2024/01/04 06:45:24;;;;;;;7.30;3.38;;;;;;;11.82;64.86;100008.88;4855163;28;123622;-70
2024/01/04 06:47:52;;;;;;;6.70;3.53;;;;;;;11.82;65.00;100014.19;4841596;29;113862;-70
2024/01/04 06:50:19;;;;;;;7.90;3.50;;;;;;;11.83;64.98;100021.22;4852766;28;114149;-71
2024/01/04 06:52:47;;;;;;;6.60;3.67;;;;;;;11.85;65.00;100024.63;4855732;28;123713;-71
2024/01/04 06:55:15;;;;;;;9.85;4.03;;;;;;;11.88;65.11;100029.72;4855611;28;124749;-71
2024/01/04 06:57:43;;;;;;;11.98;4.18;;;;;;;11.88;65.24;100029.72;4853803;28;114221;-72
2024/01/04 07:00:10;;;;;;;7.45;3.25;;;;;;;11.88;65.15;100036.81;4855590;28;114059;-71
2024/01/04 07:02:38;;;;;;;8.52;3.13;;;;;;;11.88;65.12;100039.47;4856455;28;123193;-71
2024/01/04 07:05:11;;;;;;;8.15;3.42;;;;;;;11.89;65.12;100043.84;4856175;28;123617;-71
2024/01/04 07:07:39;;;;;;;6.97;3.60;;;;;;;11.90;65.16;100047.38;4863888;28;115696;-71
2024/01/04 07:10:07;;;;;;;6.07;2.83;;;;;;;11.91;65.10;100041.13;4855595;28;114126;-71
2024/01/04 07:12:34;;;;;;;7.85;3.00;;;;;;;11.88;65.04;100048.31;4855363;28;123826;-71
2024/01/04 07:15:03;;;;;;;6.88;2.90;;;;;;;11.87;65.18;100049.25;4854831;28;124987;-71
2024/01/04 07:17:30;;;;;;;4.05;2.42;;;;;;;11.86;65.20;100052.84;4856020;28;113132;-71
2024/01/04 07:19:57;;;;;;;7.43;2.58;;;;;;;11.85;65.12;100055.59;4853266;28;113727;-71
2024/01/04 07:22:27;;;;;;;5.07;2.30;;;;;;;11.83;65.20;100066.31;4855939;29;124224;-71
2024/01/04 07:24:56;;;;;;;7.47;2.22;;;;;;;11.82;65.06;100072.56;4868118;28;123640;-71
2024/01/04 07:27:24;;;;;;;5.75;2.22;;;;;;;11.80;65.16;100078.91;4840816;28;114830;-71
2024/01/04 07:29:51;;;;;;;4.65;2.10;;;;;;;11.81;65.07;100086.78;4856839;28;113512;-71
2024/01/04 07:32:20;;;;;;;5.50;1.90;;;;;;;11.78;65.17;100086.97;4854121;29;123898;-71
2024/01/04 07:34:47;;;;;;;8.20;1.90;;;;;;;11.76;65.20;100088.84;4852987;29;123797;-71
2024/01/04 07:37:26;;;;;;;2.70;1.90;;;;;;;11.75;65.25;100092.44;4854025;28;114619;-71
2024/01/04 07:39:54;;;;;;;6.20;2.28;;;;;;;11.76;65.04;100096.81;4846796;28;113078;-71
2024/01/04 07:42:21;;;;;;;6.82;2.22;;;;;;;11.76;65.26;100101.28;4854070;29;123990;-71
2024/01/04 07:44:49;;;;;;;5.78;2.30;;;;;;;11.76;65.16;100104.78;4855240;28;124908;-70
2024/01/04 07:47:31;;;;;;;7.05;1.92;;;;;;;11.77;65.21;100106.50;4853211;29;114486;-71
2024/01/04 07:49:58;;;;;;;4.70;1.70;;;;;;;11.76;65.12;100107.44;4853763;29;114541;-70
2024/01/04 07:52:26;;;;;;;4.43;1.40;;;;;;;11.74;65.11;100111.97;4853840;29;124823;-71
2024/01/04 07:54:53;;;;;;;3.08;1.25;;;;;;;11.73;65.19;100114.72;4853527;28;124090;-72
2024/01/04 07:57:20;;;;;;;4.05;1.38;;;;;;;11.72;65.18;100113.88;4853271;28;114076;-71
2024/01/04 07:59:48;;;;;;;2.80;1.20;;;;;;;11.73;65.13;100120.88;4847067;29;115819;-72
2024/01/04 08:02:17;;;;;;;2.50;1.30;;;;;;;11.72;65.21;100119.19;4854322;29;124337;-72
2024/01/04 08:04:44;;;;;;;5.28;1.50;;;;;;;11.71;65.22;100122.78;4852949;29;124595;-73
2024/01/04 08:07:11;;;;;;;3.38;1.42;;;;;;;11.72;65.08;100135.09;4856160;29;114383;-73
2024/01/04 08:09:39;;;;;;;2.05;1.23;;;;;;;11.69;65.08;100136.13;4851074;28;113511;-72
2024/01/04 08:12:09;;;;;;;4.88;1.65;;;;;;;11.71;64.97;100138.69;4866724;28;124494;-71
2024/01/04 08:14:37;;;;;;;3.28;1.30;;;;;;;11.71;65.04;100141.34;4861103;28;123113;-71
2024/01/04 08:17:04;;;;;;;2.63;1.20;;;;;;;11.71;64.96;100138.69;4853182;28;113496;-71
2024/01/04 08:19:32;;;;;;;3.75;1.40;;;;;;;11.71;64.94;100141.34;4851220;28;114051;-71
2024/01/04 08:22:00;;;;;;;3.30;1.20;;;;;;;11.71;64.96;100149.28;4853818;29;123827;-71
2024/01/04 08:24:28;;;;;;;3.20;1.08;;;;;;;11.71;65.20;100149.28;4854103;29;123089;-71
2024/01/04 08:26:57;;;;;;;1.77;1.02;;;;;;;11.70;64.97;100147.59;4842786;28;114848;-71
2024/01/04 08:29:25;;;;;;;3.08;1.25;;;;;;;11.72;64.98;100140.41;4846805;28;114131;-71
2024/01/04 08:31:52;;;;;;;2.55;1.25;;;;;;;11.69;64.96;100146.72;4852502;29;123370;-71
2024/01/04 08:34:19;;;;;;;1.40;0.90;;;;;;;11.69;65.04;100145.88;4853734;29;124185;-71
2024/01/04 08:36:47;;;;;;;2.97;1.10;;;;;;;11.69;65.12;100156.50;4855053;29;113750;-71
2024/01/04 08:39:14;;;;;;;2.95;1.05;;;;;;;11.69;65.05;100152.03;4855618;28;113418;-71
2024/01/04 08:41:42;;;;;;;2.00;1.08;;;;;;;11.73;65.02;100163.31;4851925;29;124714;-71
2024/01/04 08:44:10;;;;;;;3.15;1.20;;;;;;;11.74;64.97;100165.03;4853310;28;123831;-71
2024/01/04 08:46:42;;;;;;;3.00;1.33;;;;;;;11.74;65.03;100175.66;4848822;28;115716;-71
2024/01/04 08:49:09;;;;;;;3.08;1.30;;;;;;;11.75;64.98;100177.34;4868429;28;116006;-71
2024/01/04 08:51:37;;;;;;;2.58;1.33;;;;;;;11.76;64.89;100184.38;4864939;28;124016;-71
2024/01/04 08:54:04;;;;;;;4.65;1.48;;;;;;;11.76;64.94;100183.53;4866412;28;124366;-71
2024/01/04 08:56:32;;;;;;;3.67;1.38;;;;;;;11.75;65.15;100182.66;4855506;29;114771;-71
2024/01/04 08:59:00;;;;;;;3.40;1.33;;;;;;;11.74;65.11;100188.91;4853517;29;113816;-71
2024/01/04 09:01:46;;;;;;;3.35;1.38;;;;;;;11.72;65.08;100193.47;4860535;28;124509;-71
2024/01/04 09:04:13;;;;;;;;;;;;;;;11.69;64.91;100199.78;4859722;28;123067;-71
2024/01/04 09:06:41;;;;;;;1.52;0.85;;;;;;;11.67;64.83;100198.19;4869177;28;113667;-72
2024/01/04 09:09:10;;;;;;;1.55;0.90;;;;;;;11.65;64.79;100202.72;4855753;29;113413;-72
2024/01/04 09:11:41;;;;;;;1.02;0.73;;;;;;;11.61;64.78;100191.44;4853296;29;124373;-72
2024/01/04 09:14:11;;;;;;;1.08;0.52;;;;;;;11.58;64.82;100201.38;4854046;29;124022;-72
2024/01/04 09:16:43;;;;;;;1.15;0.50;;;;;;;11.54;64.77;100195.41;4856505;29;113780;-72
2024/01/04 09:19:18;;;;;;;1.48;0.63;;;;;;;11.50;64.67;100200.03;4854092;29;114723;-72
2024/01/04 09:21:49;;;;;;;2.47;0.60;;;;;;;11.47;64.75;100192.28;4834518;29;123579;-71
2024/01/04 09:24:18;;;;;;;2.38;0.63;;;;;;;11.47;64.82;100189.63;4854199;28;123868;-71
2024/01/04 09:26:46;;;;;;;0.77;0.40;;;;;;;11.48;64.90;100196.63;4854990;28;114174;-71
2024/01/04 09:29:16;;;;;;;0.88;0.55;;;;;;;11.49;64.89;100208.94;4867792;28;114098;-71
2024/01/04 09:31:44;;;;;;;1.73;0.50;;;;;;;11.50;65.01;100210.63;4855011;28;124064;-71
2024/01/04 09:34:11;;;;;;;1.40;0.50;;;;;;;11.54;64.99;100215.78;4870342;28;123675;-71
2024/01/04 09:36:39;;;;;;;1.10;0.70;;;;;;;11.59;65.01;100213.72;4853995;28;114783;-71
2024/01/04 09:39:14;;;;;;;3.60;1.48;;;;;;;11.61;64.96;100223.28;4853176;29;115517;-72
2024/01/04 09:41:44;;;;;;;2.45;1.17;;;;;;;11.65;65.11;100223.94;4854679;29;124206;-72
2024/01/04 09:44:14;;;;;;;4.82;1.70;;;;;;;11.69;65.09;100236.06;4851726;29;123983;-71
2024/01/04 09:46:42;;;;;;;5.53;2.28;;;;;;;11.72;64.96;100240.38;4853332;29;114256;-72
2024/01/04 09:49:11;;;;;;;8.60;2.55;;;;;;;11.75;65.25;100245.47;4853158;29;113872;-72
2024/01/04 09:51:42;;;;;;;7.15;2.58;;;;;;;11.77;65.21;100241.81;4853964;29;124375;-72
2024/01/04 09:54:10;;;;;;;7.30;3.00;;;;;;;11.80;65.20;100249.56;4852277;29;124248;-72
2024/01/04 09:56:40;;;;;;;5.18;2.80;;;;;;;11.83;65.28;100246.72;4854880;29;114537;-72
2024/01/04 09:59:08;;;;;;;9.20;2.67;;;;;;;11.86;65.35;100243.03;4850803;29;113720;-72
2024/01/04 10:01:37;;;;;;;7.05;2.40;;;;;;;11.87;65.34;100256.22;4851073;29;123908;-72
2024/01/04 10:04:11;;;;;;;7.38;2.40;;;;;;;11.88;65.21;100251.75;4854161;29;124862;-72
2024/01/04 10:06:41;;;;;;;4.32;2.50;;;;;;;11.90;65.21;100254.34;4850602;28;114459;-72
2024/01/04 10:09:18;;;;;;;5.85;2.40;;;;;;;11.91;65.36;100256.06;4855308;28;114120;-72
2024/01/04 10:11:58;;;;;;;5.25;2.20;;;;;;;11.92;65.35;100257.75;4851861;29;123967;-72
2024/01/04 10:14:27;;;;;;;6.45;2.05;;;;;;;11.94;65.36;100261.16;4852296;28;124136;-72
2024/01/04 10:16:56;;;;;;;5.90;1.80;;;;;;;11.97;65.34;100258.34;4852981;28;114088;-71
2024/01/04 10:19:23;;;;;;;2.47;1.42;;;;;;;11.98;65.50;100258.25;4853516;29;114286;-72
2024/01/04 10:21:51;;;;;;;5.88;1.90;;;;;;;12.00;65.32;100266.13;4848315;28;124242;-72
2024/01/04 10:24:23;;;;;;;4.97;1.77;;;;;;;12.00;65.27;100266.13;4851754;29;123846;-71
2024/01/04 10:26:58;;;;;;;2.80;1.30;;;;;;;12.00;65.37;100271.44;4850403;29;114988;-71
2024/01/04 10:29:29;;;;;;;;;;;;;;;11.99;65.16;100275.03;4852295;29;114919;-71
2024/01/04 10:32:04;;;;;;;6.30;1.40;;;;;;;11.99;65.10;100281.19;4848260;28;124063;-71
2024/01/04 10:34:34;;;;;;;4.97;1.40;;;;;;;11.99;65.36;100286.50;4852764;29;123905;-71
2024/01/04 10:37:17;;;;;;;2.47;1.25;;;;;;;12.00;65.29;100282.06;4853784;29;114569;-71
2024/01/04 10:40:00;;;;;;;3.90;1.33;;;;;;;12.03;65.36;100281.84;4855826;28;114417;-71
2024/01/04 10:42:27;;;;;;;1.67;1.30;;;;;;;12.04;65.20;100278.28;4847464;29;124063;-71
2024/01/04 10:44:55;;;;;;;3.13;1.30;;;;;;;12.06;65.17;100277.22;4867454;28;124462;-71
2024/01/04 10:47:23;;;;;;;2.75;1.20;;;;;;;12.07;65.21;100278.06;4852104;28;114103;-71
2024/01/04 10:49:57;;;;;;;4.68;1.10;;;;;;;12.11;65.20;100279.63;4853860;29;113905;-71
2024/01/04 10:52:29;;;;;;;6.75;1.23;;;;;;;12.13;65.30;100279.50;4850655;29;124623;-71
2024/01/04 10:55:02;;;;;;;1.83;1.00;;;;;;;12.14;65.24;100287.38;4846155;29;124534;-71
2024/01/04 10:57:31;;;;;;;2.75;0.82;;;;;;;12.17;65.25;100279.22;4847276;29;114352;-71
2024/01/04 11:00:02;;;;;;;1.60;0.90;;;;;;;12.18;65.41;100286.22;4851238;28;114351;-71
2024/01/04 11:02:31;;;;;;;1.63;0.80;;;;;;;12.19;65.29;100287.94;4860176;28;123457;-71
2024/01/04 11:04:59;;;;;;;1.40;0.70;;;;;;;12.22;65.36;100285.13;4850627;28;123826;-71
2024/01/04 11:07:28;;;;;;;2.40;0.85;;;;;;;12.23;65.30;100284.16;4850637;28;114384;-71
2024/01/04 11:09:55;;;;;;;2.47;0.88;;;;;;;12.25;65.25;100300.84;4855558;28;114320;-71
2024/01/04 11:12:25;;;;;;;3.75;1.15;;;;;;;12.29;65.26;100292.72;4855099;28;124290;-71
2024/01/04 11:14:53;;;;;;;2.80;1.05;;;;;;;12.32;65.14;100292.50;4856099;28;123327;-71
2024/01/04 11:17:42;;;;;;;1.70;0.85;;;;;;;12.34;65.26;100290.59;4856054;28;114691;-71
2024/01/04 11:20:31;;;;;;;1.58;0.70;;;;;;;12.35;65.26;100294.97;4857859;28;114102;-71
2024/01/04 11:23:32;;;;;;;1.25;0.82;;;;;;;12.38;65.16;100292.16;4855194;29;123533;-71
2024/01/04 11:26:22;;;;;;;1.20;0.90;;;;;;;12.40;65.14;100290.25;4855210;28;124895;-71
2024/01/04 11:28:50;;;;;;;1.63;0.90;;;;;;;12.41;65.37;100297.25;4854005;29;113849;-71
2024/01/04 11:31:17;;;;;;;2.03;1.10;;;;;;;12.42;65.18;100291.00;4853276;28;114025;-71
2024/01/04 11:33:48;;;;;;;1.70;1.00;;;;;;;12.43;65.23;100285.59;4855030;28;124034;-71